createdAt,value
2023-03-04T00:01:26.897Z,29.60
2023-03-04T00:03:54.846Z,31.37
2023-03-04T00:06:22.881Z,29.80
2023-03-04T00:08:50.824Z,28.33
2023-03-04T00:11:20.067Z,27.80
2023-03-04T00:13:47.951Z,29.93
2023-03-04T00:16:15.948Z,27.47
2023-03-04T00:18:43.917Z,28.67
2023-03-04T00:21:11.765Z,30.47
2023-03-04T00:23:41.174Z,28.80
2023-03-04T00:26:09.746Z,28.17
2023-03-04T00:28:39.806Z,29.43
2023-03-04T00:31:07.854Z,28.10
2023-03-04T00:33:36.281Z,29.87
2023-03-04T00:36:04.994Z,29.13
2023-03-04T00:38:32.878Z,30.30
2023-03-04T00:41:00.754Z,29.30
2023-03-04T00:43:29.788Z,29.53
2023-03-04T00:45:59.801Z,29.50
2023-03-04T00:48:27.823Z,27.53
2023-03-04T00:50:55.763Z,28.80
2023-03-04T00:53:24.061Z,28.90
2023-03-04T00:55:52.025Z,27.50
2023-03-04T00:58:19.895Z,26.43
2023-03-04T01:00:47.764Z,25.27
2023-03-04T01:03:17.002Z,23.27
2023-03-04T01:05:44.839Z,24.00
2023-03-04T01:08:12.660Z,23.67
2023-03-04T01:10:40.589Z,24.80
2023-03-04T01:13:08.549Z,22.50
2023-03-04T01:15:36.447Z,22.37
2023-03-04T01:18:04.523Z,21.97
2023-03-04T01:20:33.734Z,21.30
2023-03-04T01:23:01.664Z,21.17
2023-03-04T01:25:29.680Z,20.90
2023-03-04T01:27:57.577Z,20.57
2023-03-04T01:30:25.432Z,19.90
2023-03-04T01:32:53.438Z,18.33
2023-03-04T01:35:21.430Z,17.83
2023-03-04T01:37:50.724Z,17.70
2023-03-04T01:40:19.324Z,17.43
2023-03-04T01:42:47.488Z,16.87
2023-03-04T01:45:18.636Z,15.07
2023-03-04T01:47:49.291Z,16.37
2023-03-04T01:50:23.288Z,16.33
2023-03-04T01:52:52.647Z,14.97
2023-03-04T01:55:23.403Z,14.17
2023-03-04T01:57:53.469Z,15.27
2023-03-04T02:00:31.925Z,14.00
2023-03-04T02:03:03.381Z,14.13
2023-03-04T02:05:31.953Z,12.67
2023-03-04T02:08:02.527Z,13.87
2023-03-04T02:10:30.533Z,12.97
2023-03-04T02:12:59.576Z,12.43
2023-03-04T02:15:27.640Z,12.07
2023-03-04T02:17:55.530Z,11.33
2023-03-04T02:20:32.070Z,12.20
2023-03-04T02:23:10.214Z,11.63
2023-03-04T02:25:48.891Z,10.57
2023-03-04T02:28:18.191Z,10.17
2023-03-04T02:30:47.607Z,10.57
2023-03-04T02:33:18.268Z,9.87
2023-03-04T02:35:47.101Z,9.13
2023-03-04T02:38:15.094Z,10.03
2023-03-04T02:40:46.872Z,8.93
2023-03-04T02:43:14.903Z,9.70
2023-03-04T02:45:46.767Z,9.17
2023-03-04T02:48:16.174Z,9.10
2023-03-04T02:50:46.398Z,9.70
2023-03-04T02:53:15.331Z,9.27
2023-03-04T02:55:43.767Z,8.83
2023-03-04T03:00:40.509Z,9.13
2023-03-04T03:03:10.220Z,9.23
2023-03-04T03:05:39.020Z,8.87
2023-03-04T03:08:14.768Z,8.90
2023-03-04T03:10:42.783Z,9.17
2023-03-04T03:13:10.688Z,9.17
2023-03-04T03:15:42.177Z,8.63
2023-03-04T03:18:10.414Z,9.50
2023-03-04T03:20:38.561Z,8.53
2023-03-04T03:23:06.666Z,8.43
2023-03-04T03:25:35.958Z,9.13
2023-03-04T03:28:03.904Z,8.13
2023-03-04T03:30:31.868Z,9.37
2023-03-04T03:33:00.024Z,9.30
2023-03-04T03:35:28.288Z,7.93
2023-03-04T03:37:56.128Z,8.47
2023-03-04T03:40:24.046Z,8.33
2023-03-04T03:42:53.325Z,8.80
2023-03-04T03:45:21.261Z,8.57
2023-03-04T03:47:49.192Z,8.60
2023-03-04T03:50:17.791Z,8.73
2023-03-04T03:52:45.705Z,7.17
2023-03-04T03:55:14.270Z,7.67
2023-03-04T03:57:42.268Z,7.73
2023-03-04T04:00:12.919Z,8.17
2023-03-04T04:02:41.296Z,8.60
2023-03-04T04:05:10.458Z,8.33
2023-03-04T04:07:39.057Z,8.80
2023-03-04T04:10:07.539Z,7.67
2023-03-04T04:12:35.648Z,7.57
2023-03-04T04:15:03.562Z,8.23
2023-03-04T04:17:32.840Z,7.97
2023-03-04T04:20:00.734Z,7.80
2023-03-04T04:22:28.607Z,7.50
2023-03-04T04:24:56.535Z,7.70
2023-03-04T04:27:24.485Z,7.40
2023-03-04T04:29:52.369Z,7.70
2023-03-04T04:32:20.252Z,7.50
2023-03-04T04:34:49.588Z,7.53
2023-03-04T04:37:17.492Z,7.90
2023-03-04T04:39:45.448Z,8.10
2023-03-04T04:42:13.551Z,7.97
2023-03-04T04:44:41.499Z,7.67
2023-03-04T04:47:10.515Z,8.20
2023-03-04T04:49:38.400Z,7.67
2023-03-04T04:52:07.753Z,7.30
2023-03-04T04:54:35.644Z,7.93
2023-03-04T04:57:03.580Z,7.63
2023-03-04T04:59:31.450Z,6.80
2023-03-04T05:01:59.422Z,7.03
2023-03-04T05:04:27.606Z,6.37
2023-03-04T05:06:55.611Z,6.57
2023-03-04T05:09:24.892Z,7.03
2023-03-04T05:11:52.872Z,10.20
2023-03-04T05:14:20.945Z,9.87
2023-03-04T05:16:48.929Z,10.33
2023-03-04T05:19:16.948Z,11.23
2023-03-04T05:21:44.852Z,12.83
2023-03-04T05:24:12.809Z,11.73
2023-03-04T05:26:42.504Z,13.87
2023-03-04T05:29:11.789Z,13.13
2023-03-04T05:31:40.004Z,12.87
2023-03-04T05:34:07.964Z,11.70
2023-03-04T05:36:35.871Z,9.77
2023-03-04T05:39:03.848Z,10.23
2023-03-04T05:41:32.121Z,8.23
2023-03-04T05:44:01.324Z,8.00
2023-03-04T05:46:30.719Z,6.33
2023-03-04T05:49:00.238Z,5.60
2023-03-04T05:51:28.260Z,5.43
2023-03-04T05:53:56.217Z,4.80
2023-03-04T05:56:24.185Z,4.70
2023-03-04T05:58:52.153Z,5.43
2023-03-04T06:01:21.488Z,5.70
2023-03-04T06:03:49.480Z,4.10
2023-03-04T06:06:17.512Z,3.63
2023-03-04T06:08:45.430Z,3.43
2023-03-04T06:11:13.366Z,3.90
2023-03-04T06:13:41.295Z,3.70
2023-03-04T06:16:09.412Z,5.00
2023-03-04T06:18:39.167Z,3.87
2023-03-04T06:21:07.406Z,4.00
2023-03-04T06:23:35.387Z,3.37
2023-03-04T06:26:03.488Z,2.97
2023-03-04T06:28:31.525Z,3.10
2023-03-04T06:30:59.525Z,2.87
2023-03-04T06:33:27.550Z,2.80
2023-03-04T06:35:58.629Z,2.50
2023-03-04T06:38:27.463Z,2.63
2023-03-04T06:40:57.418Z,2.30
2023-03-04T06:43:25.691Z,2.87
2023-03-04T06:45:53.845Z,2.93
2023-03-04T06:48:21.732Z,2.20
2023-03-04T06:50:49.633Z,2.73
2023-03-04T06:53:18.891Z,3.00
2023-03-04T06:55:47.435Z,3.30
2023-03-04T06:58:17.356Z,3.43
2023-03-04T07:00:45.940Z,3.70
2023-03-04T07:03:13.972Z,3.57
2023-03-04T07:05:41.835Z,3.10
2023-03-04T07:08:09.705Z,2.00
2023-03-04T07:10:38.902Z,2.30
2023-03-04T07:13:07.438Z,2.40
2023-03-04T07:15:36.124Z,2.33
2023-03-04T07:18:04.036Z,2.43
2023-03-04T07:20:31.919Z,2.20
2023-03-04T07:22:59.795Z,2.07
2023-03-04T07:25:27.651Z,2.30
2023-03-04T07:27:56.944Z,2.33
2023-03-04T07:30:25.053Z,2.47
2023-03-04T07:32:53.003Z,2.40
2023-03-04T07:35:20.928Z,2.33
2023-03-04T07:37:48.784Z,2.87
2023-03-04T07:40:16.848Z,1.90
2023-03-04T07:42:44.889Z,2.20
2023-03-04T07:45:14.534Z,2.67
2023-03-04T07:47:42.436Z,1.90
2023-03-04T07:50:15.419Z,2.37
2023-03-04T07:52:46.575Z,2.17
2023-03-04T07:55:16.516Z,1.83
2023-03-04T07:57:46.248Z,1.80
2023-03-04T08:00:17.610Z,2.23
2023-03-04T08:02:45.564Z,2.43
2023-03-04T08:05:13.495Z,2.40
2023-03-04T08:07:41.400Z,1.80
2023-03-04T08:10:10.266Z,1.90
2023-03-04T08:12:38.106Z,1.93
2023-03-04T08:15:07.153Z,2.33
2023-03-04T08:17:36.830Z,2.03
2023-03-04T08:20:05.181Z,1.70
2023-03-04T08:22:33.094Z,1.80
2023-03-04T08:25:00.993Z,1.80
2023-03-04T08:27:28.885Z,2.03
2023-03-04T08:29:56.895Z,1.40
2023-03-04T08:32:24.868Z,2.13
2023-03-04T08:34:56.155Z,2.13
2023-03-04T08:37:24.140Z,2.33
2023-03-04T08:39:52.000Z,2.17
2023-03-04T08:42:19.903Z,1.70
2023-03-04T08:44:47.850Z,2.00
2023-03-04T08:47:15.818Z,1.77
2023-03-04T08:49:43.672Z,1.70
2023-03-04T08:52:12.865Z,1.83
2023-03-04T08:54:40.705Z,2.10
2023-03-04T08:57:08.582Z,1.53
2023-03-04T08:59:38.291Z,1.83
2023-03-04T09:02:06.625Z,1.80
2023-03-04T09:04:34.501Z,1.73
2023-03-04T09:07:02.498Z,1.70
2023-03-04T09:09:31.785Z,2.50
2023-03-04T09:11:59.627Z,1.30
2023-03-04T09:14:27.809Z,1.93
2023-03-04T09:16:55.702Z,2.03
2023-03-04T09:19:24.208Z,1.83
2023-03-04T09:21:52.145Z,1.90
2023-03-04T09:24:19.992Z,1.93
2023-03-04T09:26:51.146Z,1.60
2023-03-04T09:29:19.088Z,1.73
2023-03-04T09:31:47.073Z,2.03
2023-03-04T09:34:15.012Z,1.90
2023-03-04T09:36:42.863Z,1.63
2023-03-04T09:39:10.838Z,2.23
2023-03-04T09:41:41.903Z,2.10
2023-03-04T09:44:22.070Z,1.27
2023-03-04T09:46:51.189Z,1.30
2023-03-04T09:49:22.852Z,1.50
2023-03-04T09:51:57.959Z,1.37
2023-03-04T09:54:37.378Z,1.93
2023-03-04T09:57:22.755Z,2.07
2023-03-04T10:00:02.548Z,1.50
2023-03-04T10:02:41.308Z,1.60
2023-03-04T10:05:14.327Z,1.60
2023-03-04T10:07:46.602Z,1.63
2023-03-04T10:10:21.176Z,1.87
2023-03-04T10:12:51.117Z,1.43
2023-03-04T10:15:28.177Z,1.80
2023-03-04T10:18:02.070Z,1.50
2023-03-04T10:20:40.141Z,1.50
2023-03-04T10:23:11.879Z,1.50
2023-03-04T10:25:45.692Z,1.73
2023-03-04T10:28:17.512Z,1.90
2023-03-04T10:30:52.155Z,1.63
2023-03-04T10:33:22.286Z,1.67
2023-03-04T10:35:56.970Z,1.77
2023-03-04T10:38:25.077Z,1.47
2023-03-04T10:40:53.057Z,1.50
2023-03-04T10:43:22.760Z,1.57
2023-03-04T10:45:56.929Z,1.13
2023-03-04T10:48:26.962Z,1.20
2023-03-04T10:50:55.226Z,1.33
2023-03-04T10:53:38.725Z,1.20
2023-03-04T10:56:37.433Z,1.40
2023-03-04T10:59:46.042Z,0.93
2023-03-04T11:02:22.459Z,1.00
2023-03-04T11:04:56.473Z,1.40
2023-03-04T11:07:26.367Z,1.93
2023-03-04T11:09:57.266Z,1.30
2023-03-04T11:12:35.015Z,3.40
2023-03-04T11:15:03.942Z,1.40
2023-03-04T11:17:44.858Z,1.83
2023-03-04T11:20:17.661Z,1.90
2023-03-04T11:22:47.036Z,1.60
2023-03-04T11:25:27.651Z,2.20
2023-03-04T11:27:59.496Z,1.57
2023-03-04T11:30:35.436Z,1.40
2023-03-04T11:33:13.492Z,1.60
2023-03-04T11:35:49.693Z,1.70
2023-03-04T11:38:20.384Z,1.43
2023-03-04T11:40:52.684Z,1.80
2023-03-04T11:43:26.149Z,1.50
2023-03-04T11:46:13.255Z,1.50
2023-03-04T11:48:55.040Z,1.10
2023-03-04T11:51:31.536Z,1.70
2023-03-04T11:54:13.875Z,1.23
2023-03-04T11:56:45.032Z,1.37
2023-03-04T11:59:41.209Z,1.57
2023-03-04T12:02:18.328Z,1.30
2023-03-04T12:05:20.913Z,1.30
2023-03-04T12:08:12.476Z,1.23
2023-03-04T12:10:45.681Z,1.07
2023-03-04T12:13:49.175Z,1.33
2023-03-04T12:16:35.072Z,1.30
2023-03-04T12:19:16.475Z,1.80
2023-03-04T12:22:14.042Z,1.30
2023-03-04T12:25:15.128Z,1.20
2023-03-04T12:27:50.249Z,1.33
2023-03-04T12:30:30.292Z,1.00
2023-03-04T12:33:09.978Z,1.43
2023-03-04T12:35:42.464Z,1.30
2023-03-04T12:38:41.133Z,1.20
2023-03-04T12:41:24.378Z,1.20
2023-03-04T12:44:01.685Z,1.27
2023-03-04T12:46:42.287Z,1.53
2023-03-04T12:49:27.081Z,1.30
2023-03-04T12:52:02.925Z,1.57
2023-03-04T12:54:34.927Z,1.00
2023-03-04T12:57:05.606Z,1.03
2023-03-04T12:59:37.529Z,1.00
2023-03-04T13:02:26.868Z,0.80
2023-03-04T13:05:04.033Z,1.07
2023-03-04T13:07:43.130Z,1.23
2023-03-04T13:10:15.857Z,0.70
2023-03-04T13:12:52.620Z,0.83
2023-03-04T13:15:33.298Z,0.90
2023-03-04T13:18:02.959Z,1.10
2023-03-04T13:20:38.319Z,1.00
2023-03-04T13:23:25.772Z,1.27
2023-03-04T13:26:32.348Z,1.10
2023-03-04T13:29:34.933Z,1.00
2023-03-04T13:32:05.583Z,0.80
2023-03-04T13:34:48.563Z,1.10
2023-03-04T13:37:30.964Z,1.00
2023-03-04T13:40:37.062Z,1.00
2023-03-04T13:43:28.522Z,1.00
2023-03-04T13:45:57.974Z,0.80
2023-03-04T13:48:33.373Z,1.20
2023-03-04T13:51:01.313Z,1.07
2023-03-04T13:53:38.568Z,1.07
2023-03-04T13:56:40.008Z,1.00
2023-03-04T13:59:24.999Z,1.00
2023-03-04T14:02:01.096Z,0.70
2023-03-04T14:04:32.030Z,0.97
2023-03-04T14:07:01.803Z,0.70
2023-03-04T14:09:32.046Z,0.87
2023-03-04T14:12:03.980Z,0.90
2023-03-04T14:14:37.757Z,0.70
2023-03-04T14:17:08.305Z,1.20
2023-03-04T14:19:44.829Z,0.90
2023-03-04T14:22:25.189Z,1.17
2023-03-04T14:25:01.978Z,1.37
2023-03-04T14:27:32.927Z,1.50
2023-03-04T14:30:02.479Z,1.20
2023-03-04T14:32:32.624Z,1.30
2023-03-04T14:35:03.878Z,2.33
2023-03-04T14:37:42.201Z,2.20
2023-03-04T14:40:20.938Z,2.20
2023-03-04T14:42:53.496Z,2.00
2023-03-04T14:45:23.247Z,1.97
2023-03-04T14:47:56.053Z,1.80
2023-03-04T14:50:24.592Z,1.90
2023-03-04T14:53:06.074Z,1.73
2023-03-04T14:55:34.061Z,1.50
2023-03-04T14:58:09.144Z,1.17
2023-03-04T15:00:39.036Z,1.50
2023-03-04T15:03:21.871Z,1.37
2023-03-04T15:05:50.128Z,1.30
2023-03-04T15:08:23.562Z,1.33
2023-03-04T15:10:56.948Z,1.27
2023-03-04T15:13:39.026Z,1.50
2023-03-04T15:16:08.350Z,1.60
2023-03-04T15:18:38.096Z,1.90
2023-03-04T15:21:07.629Z,1.80
2023-03-04T15:23:36.563Z,1.50
2023-03-04T15:26:06.340Z,1.70
2023-03-04T15:28:36.766Z,1.67
2023-03-04T15:31:05.517Z,1.90
2023-03-04T15:33:33.952Z,1.83
2023-03-04T15:36:04.512Z,1.83
2023-03-04T15:38:32.593Z,1.77
2023-03-04T15:41:00.769Z,2.00
2023-03-04T15:43:28.800Z,2.23
2023-03-04T15:45:57.029Z,2.00
2023-03-04T15:48:24.941Z,2.10
2023-03-04T15:50:56.920Z,2.07
2023-03-04T15:53:33.706Z,2.00
2023-03-04T15:56:02.788Z,2.33
2023-03-04T15:58:34.842Z,2.20
2023-03-04T16:01:03.236Z,1.70
2023-03-04T16:03:31.269Z,2.37
2023-03-04T16:05:59.457Z,2.03
2023-03-04T16:08:29.116Z,1.97
2023-03-04T16:10:57.033Z,2.13
2023-03-04T16:13:25.100Z,1.80
2023-03-04T16:15:53.430Z,2.00
2023-03-04T16:18:21.483Z,1.97
2023-03-04T16:20:51.427Z,1.83
2023-03-04T16:23:22.484Z,1.90
2023-03-04T16:25:54.627Z,1.57
2023-03-04T16:28:23.331Z,1.83
2023-03-04T16:30:51.360Z,1.90
2023-03-04T16:33:19.297Z,2.17
2023-03-04T16:35:47.561Z,2.27
2023-03-04T16:38:25.779Z,1.87
2023-03-04T16:40:56.291Z,2.10
2023-03-04T16:43:24.807Z,2.40
2023-03-04T16:45:52.933Z,2.00
2023-03-04T16:48:21.299Z,2.00
2023-03-04T16:50:49.268Z,2.07
2023-03-04T16:53:25.922Z,2.33
2023-03-04T16:55:55.394Z,2.10
2023-03-04T16:58:23.290Z,2.10
2023-03-04T17:00:51.281Z,1.80
2023-03-04T17:03:19.124Z,2.00
2023-03-04T17:05:47.785Z,2.47
2023-03-04T17:08:15.665Z,2.67
2023-03-04T17:10:43.538Z,2.13
2023-03-04T17:13:12.804Z,2.40
2023-03-04T17:15:42.783Z,3.23
2023-03-04T17:18:10.757Z,2.97
2023-03-04T17:20:39.083Z,2.90
2023-03-04T17:23:06.939Z,2.93
2023-03-04T17:25:34.930Z,3.00
2023-03-04T17:28:04.061Z,3.03
2023-03-04T17:30:33.448Z,2.37
2023-03-04T17:33:01.319Z,3.03
2023-03-04T17:35:29.419Z,2.80
2023-03-04T17:37:57.419Z,2.90
2023-03-04T17:40:25.372Z,3.27
2023-03-04T17:42:53.320Z,3.07
2023-03-04T17:45:21.296Z,3.27
2023-03-04T17:47:50.551Z,2.70
2023-03-04T17:50:18.782Z,3.57
2023-03-04T17:52:46.658Z,3.17
2023-03-04T17:55:14.595Z,3.30
2023-03-04T17:57:42.628Z,2.87
2023-03-04T18:00:12.110Z,3.13
2023-03-04T18:02:40.674Z,2.90
2023-03-04T18:05:11.363Z,2.70
2023-03-04T18:07:39.385Z,3.00
2023-03-04T18:10:08.520Z,2.63
2023-03-04T18:12:36.559Z,2.40
2023-03-04T18:15:04.916Z,3.07
2023-03-04T18:17:32.814Z,2.70
2023-03-04T18:20:01.709Z,2.37
2023-03-04T18:22:31.537Z,2.77
2023-03-04T18:24:59.361Z,2.50
2023-03-04T18:27:27.816Z,2.53
2023-03-04T18:29:56.296Z,2.60
2023-03-04T18:32:24.258Z,2.27
2023-03-04T18:34:52.381Z,2.70
2023-03-04T18:37:20.299Z,2.33
2023-03-04T18:39:49.787Z,2.20
2023-03-04T18:42:17.747Z,2.30
2023-03-04T18:44:45.859Z,2.53
2023-03-04T18:47:14.582Z,2.30
2023-03-04T18:49:44.693Z,2.13
2023-03-04T18:52:12.956Z,2.30
2023-03-04T18:54:40.848Z,2.57
2023-03-04T18:57:11.458Z,2.63
2023-03-04T18:59:42.596Z,2.77
2023-03-04T19:02:16.946Z,2.10
2023-03-04T19:04:45.198Z,2.47
2023-03-04T19:07:13.137Z,2.90
2023-03-04T19:09:40.979Z,2.50
2023-03-04T19:12:10.346Z,2.27
2023-03-04T19:14:38.283Z,2.03
2023-03-04T19:17:06.201Z,2.90
2023-03-04T19:19:36.332Z,2.53
2023-03-04T19:22:04.584Z,2.10
2023-03-04T19:24:32.539Z,2.23
2023-03-04T19:27:00.574Z,2.37
2023-03-04T19:29:30.040Z,2.73
2023-03-04T19:31:58.055Z,2.80
2023-03-04T19:34:26.067Z,2.57
2023-03-04T19:36:54.092Z,2.30
2023-03-04T19:39:22.088Z,2.17
2023-03-04T19:41:50.079Z,2.30
2023-03-04T19:44:19.149Z,2.50
2023-03-04T19:46:48.488Z,2.20
2023-03-04T19:49:16.489Z,2.37
2023-03-04T19:51:44.361Z,2.50
2023-03-04T19:54:12.341Z,2.93
2023-03-04T19:56:40.327Z,2.40
2023-03-04T19:59:08.636Z,3.40
2023-03-04T20:01:38.598Z,2.50
2023-03-04T20:04:09.566Z,2.43
2023-03-04T20:06:38.891Z,2.30
2023-03-04T20:09:07.129Z,2.47
2023-03-04T20:11:41.488Z,2.50
2023-03-04T20:14:18.916Z,2.40
2023-03-04T20:16:46.804Z,2.00
2023-03-04T20:19:16.081Z,1.43
2023-03-04T20:21:44.866Z,2.00
2023-03-04T20:24:13.043Z,1.70
2023-03-04T20:26:41.020Z,1.70
2023-03-04T20:29:08.923Z,2.10
2023-03-04T20:31:39.189Z,2.07
2023-03-04T20:34:08.435Z,2.00
2023-03-04T20:36:38.983Z,1.77
2023-03-04T20:39:18.332Z,1.90
2023-03-04T20:41:55.267Z,1.87
2023-03-04T20:44:23.161Z,2.37
2023-03-04T20:46:51.063Z,1.80
2023-03-04T20:49:22.268Z,1.73
2023-03-04T20:51:52.356Z,1.80
2023-03-04T20:54:20.679Z,1.80
2023-03-04T20:56:49.640Z,2.20
2023-03-04T20:59:17.905Z,2.13
2023-03-04T21:01:47.968Z,2.57
2023-03-04T21:04:16.775Z,2.07
2023-03-04T21:06:45.167Z,1.80
2023-03-04T21:09:16.132Z,1.77
2023-03-04T21:11:44.318Z,1.80
2023-03-04T21:14:14.522Z,2.13
2023-03-04T21:16:43.086Z,1.97
2023-03-04T21:19:16.784Z,2.23
2023-03-04T21:21:45.238Z,1.93
2023-03-04T21:24:16.372Z,2.37
2023-03-04T21:26:45.574Z,1.77
2023-03-04T21:29:14.132Z,1.60
2023-03-04T21:31:45.228Z,1.90
2023-03-04T21:34:18.064Z,1.90
2023-03-04T21:36:46.467Z,2.17
2023-03-04T21:39:18.357Z,2.10
2023-03-04T21:41:47.007Z,2.13
2023-03-04T21:44:27.865Z,1.73
2023-03-04T21:46:57.489Z,2.13
2023-03-04T21:49:25.448Z,1.87
2023-03-04T21:51:53.524Z,2.00
2023-03-04T21:54:23.329Z,1.40
2023-03-04T21:56:51.385Z,2.00
2023-03-04T21:59:19.531Z,1.80
2023-03-04T22:01:47.848Z,1.90
2023-03-04T22:04:18.229Z,2.30
2023-03-04T22:06:46.248Z,2.00
2023-03-04T22:09:14.518Z,2.23
2023-03-04T22:11:44.094Z,1.93
2023-03-04T22:14:12.893Z,1.60
2023-03-04T22:16:54.126Z,1.93
2023-03-04T22:19:23.176Z,1.97
2023-03-04T22:21:51.391Z,1.70
2023-03-04T22:24:19.766Z,1.90
2023-03-04T22:26:49.472Z,1.90
2023-03-04T22:29:17.570Z,1.63
2023-03-04T22:31:46.957Z,2.17
2023-03-04T22:34:16.355Z,1.90
2023-03-04T22:36:46.196Z,2.13
2023-03-04T22:39:19.206Z,2.30
2023-03-04T22:41:49.129Z,1.90
2023-03-04T22:44:17.114Z,1.70
2023-03-04T22:46:45.044Z,2.13
2023-03-04T22:49:14.921Z,1.87
2023-03-04T22:51:45.230Z,1.73
2023-03-04T22:54:14.260Z,2.27
2023-03-04T22:56:42.213Z,1.90
2023-03-04T22:59:11.544Z,2.00
2023-03-04T23:01:39.528Z,1.77
2023-03-04T23:04:07.852Z,1.77
2023-03-04T23:06:36.308Z,2.13
2023-03-04T23:09:04.923Z,2.27
2023-03-04T23:11:35.310Z,2.00
2023-03-04T23:14:06.841Z,2.00
2023-03-04T23:16:39.244Z,1.93
2023-03-04T23:19:08.992Z,1.60
2023-03-04T23:21:39.164Z,1.97
2023-03-04T23:24:09.170Z,1.93
2023-03-04T23:26:39.770Z,2.03
2023-03-04T23:29:09.797Z,2.37
2023-03-04T23:31:39.680Z,2.27
2023-03-04T23:34:07.748Z,2.23
2023-03-04T23:36:37.605Z,2.37
2023-03-04T23:39:07.070Z,2.03
2023-03-04T23:41:35.818Z,1.70
2023-03-04T23:44:04.480Z,2.10
2023-03-04T23:46:32.920Z,1.37
2023-03-04T23:49:02.223Z,1.50
2023-03-04T23:51:31.013Z,1.70
2023-03-04T23:54:00.231Z,1.77
2023-03-04T23:56:30.462Z,1.47
2023-03-04T23:58:59.276Z,1.57
